createdAt,value
2022-09-04T00:02:04.671Z,4.60
2022-09-04T00:04:43.842Z,5.40
2022-09-04T00:07:23.676Z,6.10
2022-09-04T00:10:09.858Z,4.70
2022-09-04T00:13:08.137Z,3.40
2022-09-04T00:15:41.293Z,9.70
2022-09-04T00:18:15.214Z,8.90
2022-09-04T00:20:55.861Z,5.40
2022-09-04T00:23:26.616Z,7.50
2022-09-04T00:26:06.815Z,5.40
2022-09-04T00:28:39.536Z,7.50
2022-09-04T00:31:22.282Z,7.00
2022-09-04T00:34:07.342Z,6.10
2022-09-04T00:36:40.074Z,6.50
2022-09-04T00:39:14.017Z,5.40
2022-09-04T00:44:28.431Z,6.10
2022-09-04T00:47:03.647Z,5.60
2022-09-04T00:49:45.282Z,5.50
2022-09-04T00:52:45.004Z,5.70
2022-09-04T00:55:30.701Z,4.10
2022-09-04T00:58:21.613Z,5.80
2022-09-04T01:00:50.085Z,5.50
2022-09-04T01:03:46.261Z,6.40
2022-09-04T01:06:16.143Z,6.70
2022-09-04T01:08:56.300Z,5.20
2022-09-04T01:11:32.251Z,8.20
2022-09-04T01:14:29.626Z,4.90
2022-09-04T01:17:19.889Z,4.40
2022-09-04T01:20:08.463Z,5.10
2022-09-04T01:23:06.398Z,4.70
2022-09-04T01:25:49.283Z,5.70
2022-09-04T01:28:27.183Z,5.50
2022-09-04T01:31:12.985Z,5.10
2022-09-04T01:33:55.102Z,4.60
2022-09-04T01:36:45.587Z,5.50
2022-09-04T01:39:12.509Z,6.50
2022-09-04T01:42:00.569Z,6.00
2022-09-04T01:44:27.879Z,6.90
2022-09-04T01:47:16.956Z,5.50
2022-09-04T01:49:47.372Z,5.30
2022-09-04T01:52:30.225Z,6.90
2022-09-04T01:55:08.783Z,4.80
2022-09-04T01:57:51.804Z,5.90
2022-09-04T02:00:23.265Z,5.90
2022-09-04T02:03:02.420Z,6.30
2022-09-04T02:05:48.571Z,7.70
2022-09-04T02:08:41.500Z,6.10
2022-09-04T02:11:17.728Z,8.40
2022-09-04T02:14:19.941Z,6.50
2022-09-04T02:16:56.542Z,5.90
2022-09-04T02:19:25.050Z,6.40
2022-09-04T02:22:01.980Z,5.20
2022-09-04T02:24:56.887Z,6.00
2022-09-04T02:27:49.871Z,6.60
2022-09-04T02:30:19.309Z,6.00
2022-09-04T02:33:02.878Z,8.00
2022-09-04T02:35:40.187Z,7.30
2022-09-04T02:38:28.207Z,5.30
2022-09-04T02:41:12.950Z,6.10
2022-09-04T02:43:45.997Z,6.00
2022-09-04T02:46:24.995Z,7.20
2022-09-04T02:49:09.603Z,8.20
2022-09-04T02:51:53.863Z,8.30
2022-09-04T02:54:52.675Z,6.40
2022-09-04T02:57:43.064Z,7.70
2022-09-04T03:00:20.068Z,8.30
2022-09-04T03:03:01.400Z,7.00
2022-09-04T03:05:42.202Z,7.20
2022-09-04T03:08:16.858Z,7.00
2022-09-04T03:11:15.021Z,6.40
2022-09-04T03:14:00.328Z,6.30
2022-09-04T03:16:43.207Z,8.20
2022-09-04T03:19:16.631Z,6.40
2022-09-04T03:22:00.967Z,6.20
2022-09-04T03:24:44.250Z,5.90
2022-09-04T03:27:15.287Z,4.20
2022-09-04T03:30:01.494Z,5.80
2022-09-04T03:32:41.828Z,5.10
2022-09-04T03:35:40.355Z,7.00
2022-09-04T03:38:29.813Z,7.10
2022-09-04T03:41:06.457Z,8.00
2022-09-04T03:43:42.374Z,8.80
2022-09-04T03:46:28.250Z,7.90
2022-09-04T03:49:07.457Z,12.00
2022-09-04T03:51:42.228Z,8.60
2022-09-04T03:54:09.674Z,6.60
2022-09-04T03:57:08.095Z,5.90
2022-09-04T03:59:46.237Z,6.20
2022-09-04T04:02:24.391Z,5.90
2022-09-04T04:05:11.406Z,6.90
2022-09-04T04:08:09.899Z,6.60
2022-09-04T04:10:57.853Z,5.60
2022-09-04T04:13:35.687Z,6.90
2022-09-04T04:16:33.904Z,7.20
2022-09-04T04:19:18.509Z,7.10
2022-09-04T04:22:01.045Z,6.30
2022-09-04T04:24:39.255Z,8.70
2022-09-04T04:27:29.296Z,6.10
2022-09-04T04:30:06.943Z,7.30
2022-09-04T04:32:49.647Z,8.20
2022-09-04T04:35:25.301Z,7.70
2022-09-04T04:38:00.630Z,8.00
2022-09-04T04:40:46.714Z,6.10
2022-09-04T04:43:23.357Z,8.90
2022-09-04T04:46:26.018Z,7.50
2022-09-04T04:49:05.693Z,11.20
2022-09-04T04:51:40.931Z,8.00
2022-09-04T04:54:42.225Z,7.90
2022-09-04T04:57:30.975Z,8.20
2022-09-04T05:00:08.997Z,7.70
2022-09-04T05:02:51.760Z,8.50
2022-09-04T05:05:55.294Z,9.40
2022-09-04T05:08:41.895Z,8.00
2022-09-04T05:11:40.400Z,8.50
2022-09-04T05:14:24.467Z,10.20
2022-09-04T05:17:23.622Z,8.40
2022-09-04T05:20:03.996Z,7.30
2022-09-04T05:22:37.503Z,7.10
2022-09-04T05:25:16.343Z,6.20
2022-09-04T05:28:14.655Z,9.10
2022-09-04T05:31:04.873Z,5.70
2022-09-04T05:33:51.347Z,7.80
2022-09-04T05:36:30.278Z,7.40
2022-09-04T05:39:16.541Z,8.80
2022-09-04T05:41:50.824Z,7.20
2022-09-04T05:44:20.432Z,7.10
2022-09-04T05:46:52.066Z,8.50
2022-09-04T05:49:36.268Z,7.00
2022-09-04T05:52:20.363Z,7.00
2022-09-04T05:55:04.276Z,5.90
2022-09-04T05:57:37.167Z,6.80
2022-09-04T06:00:19.932Z,7.90
2022-09-04T06:02:47.398Z,8.80
2022-09-04T06:05:22.519Z,7.50
2022-09-04T06:07:53.400Z,6.10
2022-09-04T06:10:28.786Z,6.80
2022-09-04T06:13:27.324Z,7.30
2022-09-04T06:15:59.340Z,6.00
2022-09-04T06:18:37.586Z,6.70
2022-09-04T06:21:11.625Z,7.20
2022-09-04T06:23:57.801Z,6.90
2022-09-04T06:26:40.675Z,6.50
2022-09-04T06:29:39.046Z,6.10
2022-09-04T06:32:41.343Z,6.20
2022-09-04T06:35:24.096Z,5.80
2022-09-04T06:38:00.124Z,5.30
2022-09-04T06:40:50.224Z,6.60
2022-09-04T06:43:32.835Z,5.60
2022-09-04T06:46:27.718Z,5.80
2022-09-04T06:49:10.505Z,5.70
2022-09-04T06:51:54.640Z,4.90
2022-09-04T06:54:27.436Z,4.70
2022-09-04T06:57:35.488Z,7.00
2022-09-04T07:00:04.062Z,5.00
2022-09-04T07:02:47.108Z,5.60
2022-09-04T07:05:20.124Z,5.10
2022-09-04T07:07:47.518Z,5.00
2022-09-04T07:10:21.673Z,5.20
2022-09-04T07:13:03.206Z,5.30
2022-09-04T07:15:50.358Z,4.80
2022-09-04T07:18:33.224Z,4.70
2022-09-04T07:21:23.604Z,5.80
2022-09-04T07:24:09.032Z,4.50
2022-09-04T07:26:49.337Z,4.10
2022-09-04T07:29:25.653Z,4.20
2022-09-04T07:32:07.837Z,3.70
2022-09-04T07:34:56.461Z,3.90
2022-09-04T07:37:28.030Z,4.50
2022-09-04T07:40:00.913Z,3.70
2022-09-04T07:42:42.172Z,3.50
2022-09-04T07:45:23.315Z,5.40
2022-09-04T07:48:06.102Z,3.30
2022-09-04T07:50:40.203Z,3.30
2022-09-04T07:53:28.328Z,3.30
2022-09-04T07:56:03.859Z,4.10
2022-09-04T07:58:37.439Z,2.90
2022-09-04T08:01:12.152Z,5.60
2022-09-04T08:03:54.044Z,2.50
2022-09-04T08:06:31.421Z,2.90
2022-09-04T08:09:09.105Z,3.40
2022-09-04T08:11:47.482Z,4.10
2022-09-04T08:14:16.162Z,4.30
2022-09-04T08:16:56.692Z,2.30
2022-09-04T08:19:40.816Z,3.00
2022-09-04T08:22:13.604Z,3.30
2022-09-04T08:24:57.250Z,2.70
2022-09-04T08:27:44.366Z,3.20
2022-09-04T08:30:14.356Z,3.20
2022-09-04T08:32:57.034Z,3.00
2022-09-04T08:35:32.209Z,2.30
2022-09-04T08:38:22.553Z,2.40
2022-09-04T08:40:52.298Z,2.10
2022-09-04T08:43:32.637Z,3.80
2022-09-04T08:46:16.785Z,2.10
2022-09-04T08:48:59.131Z,3.50
2022-09-04T08:51:57.237Z,3.00
2022-09-04T08:54:59.218Z,2.80
2022-09-04T08:57:43.425Z,2.10
2022-09-04T09:00:15.423Z,2.20
2022-09-04T09:03:13.549Z,2.30
2022-09-04T09:05:59.614Z,3.50
2022-09-04T09:08:38.262Z,2.40
2022-09-04T09:11:29.296Z,2.50
2022-09-04T09:14:27.752Z,3.10
2022-09-04T09:17:12.644Z,2.10
2022-09-04T09:19:43.374Z,2.60
2022-09-04T09:22:31.461Z,2.70
2022-09-04T09:25:20.798Z,2.70
2022-09-04T09:28:19.260Z,3.10
2022-09-04T09:31:17.553Z,2.40
2022-09-04T09:33:47.130Z,2.60
2022-09-04T09:36:36.821Z,2.50
2022-09-04T09:39:27.059Z,3.10
2022-09-04T09:42:11.392Z,2.50
2022-09-04T09:45:04.362Z,2.40
2022-09-04T09:47:39.175Z,2.80
2022-09-04T09:50:41.831Z,3.40
2022-09-04T09:53:12.774Z,3.20
2022-09-04T09:55:46.999Z,2.60
2022-09-04T09:58:14.368Z,3.90
2022-09-04T10:00:57.468Z,2.40
2022-09-04T10:03:52.476Z,3.10
2022-09-04T10:06:35.475Z,4.00
2022-09-04T10:09:25.711Z,4.90
2022-09-04T10:11:56.496Z,3.10
2022-09-04T10:14:54.810Z,3.10
2022-09-04T10:17:53.078Z,2.40
2022-09-04T10:20:46.326Z,4.20
2022-09-04T10:23:31.804Z,6.30
2022-09-04T10:26:29.294Z,3.20
2022-09-04T10:29:05.280Z,2.70
2022-09-04T10:31:48.044Z,2.70
2022-09-04T10:34:33.007Z,2.70
2022-09-04T10:37:18.886Z,4.40
2022-09-04T10:40:08.732Z,5.90
2022-09-04T10:43:01.470Z,3.20
2022-09-04T10:45:36.275Z,5.40
2022-09-04T10:48:13.007Z,4.10
2022-09-04T10:51:00.273Z,4.20
2022-09-04T10:53:58.729Z,3.10
2022-09-04T10:56:31.525Z,2.40
2022-09-04T10:59:09.904Z,3.10
2022-09-04T11:01:52.794Z,3.50
2022-09-04T11:04:52.742Z,4.00
2022-09-04T11:07:51.710Z,3.50
2022-09-04T11:10:29.049Z,2.90
2022-09-04T11:13:04.387Z,4.90
2022-09-04T11:15:31.786Z,2.90
2022-09-04T11:18:01.340Z,4.90
2022-09-04T11:20:30.942Z,2.90
2022-09-04T11:23:14.900Z,3.10
2022-09-04T11:28:40.484Z,4.90
2022-09-04T11:31:34.122Z,3.60
2022-09-04T11:34:16.997Z,3.30
2022-09-04T11:37:16.188Z,3.10
2022-09-04T11:39:44.787Z,3.40
2022-09-04T11:42:28.444Z,3.30
2022-09-04T11:45:27.222Z,4.00
2022-09-04T11:47:57.018Z,4.90
2022-09-04T11:50:40.524Z,4.20
2022-09-04T11:53:23.188Z,4.70
2022-09-04T11:56:09.240Z,4.20
2022-09-04T11:58:59.797Z,4.60
2022-09-04T12:01:28.273Z,4.80
2022-09-04T12:03:57.852Z,4.20
2022-09-04T12:06:35.248Z,3.30
2022-09-04T12:09:18.248Z,5.60
2022-09-04T12:12:16.678Z,4.90
2022-09-04T12:15:01.165Z,3.80
2022-09-04T12:17:57.859Z,4.30
2022-09-04T12:20:48.069Z,5.40
2022-09-04T12:23:38.537Z,5.10
2022-09-04T12:26:22.190Z,4.50
2022-09-04T12:29:06.602Z,5.50
2022-09-04T12:31:37.363Z,5.70
2022-09-04T12:34:39.887Z,6.30
2022-09-04T12:37:20.004Z,7.20
2022-09-04T12:40:07.183Z,9.90
2022-09-04T12:42:39.967Z,13.20
2022-09-04T12:45:23.313Z,10.40
2022-09-04T12:48:11.253Z,9.30
2022-09-04T12:50:44.944Z,5.80
2022-09-04T12:53:31.691Z,6.40
2022-09-04T12:56:31.034Z,6.10
2022-09-04T12:59:10.725Z,6.20
2022-09-04T13:02:02.434Z,5.10
2022-09-04T13:04:31.079Z,6.00
2022-09-04T13:07:16.340Z,5.80
2022-09-04T13:10:06.939Z,5.40
2022-09-04T13:12:36.701Z,6.40
2022-09-04T13:15:07.958Z,6.00
2022-09-04T13:17:41.047Z,5.50
2022-09-04T13:20:24.070Z,4.10
2022-09-04T13:23:01.300Z,7.20
2022-09-04T13:25:42.431Z,5.30
2022-09-04T13:28:40.773Z,6.70
2022-09-04T13:31:33.592Z,6.90
2022-09-04T13:34:24.061Z,6.30
2022-09-04T13:37:09.766Z,7.40
2022-09-04T13:39:56.247Z,6.80
2022-09-04T13:42:24.732Z,5.30
2022-09-04T13:44:58.764Z,6.10
2022-09-04T13:47:32.487Z,5.40
2022-09-04T13:50:19.966Z,6.70
2022-09-04T13:52:52.733Z,5.30
2022-09-04T13:55:27.461Z,5.30
2022-09-04T13:58:11.708Z,5.50
2022-09-04T14:00:46.174Z,5.00
2022-09-04T14:03:29.186Z,5.00
2022-09-04T14:05:56.486Z,5.20
2022-09-04T14:08:23.999Z,5.30
2022-09-04T14:11:15.950Z,5.40
2022-09-04T14:13:44.788Z,6.30
2022-09-04T14:16:15.259Z,7.10
2022-09-04T14:19:00.196Z,5.70
2022-09-04T14:22:02.490Z,5.90
2022-09-04T14:24:45.889Z,5.60
2022-09-04T14:27:20.691Z,5.70
2022-09-04T14:30:07.366Z,7.60
2022-09-04T14:32:47.793Z,5.50
2022-09-04T14:35:26.058Z,7.20
2022-09-04T14:38:14.326Z,6.90
2022-09-04T14:40:57.405Z,8.00
2022-09-04T14:43:41.486Z,7.70
2022-09-04T14:46:28.753Z,5.80
2022-09-04T14:49:06.310Z,5.10
2022-09-04T14:51:37.453Z,7.90
2022-09-04T14:54:05.156Z,6.80
2022-09-04T14:56:41.491Z,5.10
2022-09-04T14:59:13.412Z,6.40
2022-09-04T15:02:01.961Z,7.80
2022-09-04T15:04:34.664Z,5.50
2022-09-04T15:07:31.010Z,6.90
2022-09-04T15:10:10.635Z,7.70
2022-09-04T15:12:42.824Z,6.00
2022-09-04T15:15:25.393Z,6.30
2022-09-04T15:18:02.233Z,7.00
2022-09-04T15:20:33.140Z,8.10
2022-09-04T15:23:08.314Z,6.80
2022-09-04T15:25:58.643Z,6.30
2022-09-04T15:28:40.273Z,5.80
2022-09-04T15:31:10.927Z,7.20
2022-09-04T15:33:41.815Z,7.90
2022-09-04T15:36:10.932Z,8.00
2022-09-04T15:38:38.408Z,6.30
2022-09-04T15:41:20.220Z,6.30
2022-09-04T15:43:51.314Z,7.70
2022-09-04T15:46:34.800Z,9.50
2022-09-04T15:49:32.928Z,6.60
2022-09-04T15:52:22.174Z,7.50
2022-09-04T15:55:04.102Z,7.70
2022-09-04T15:57:46.975Z,6.10
2022-09-04T16:00:20.600Z,7.20
2022-09-04T16:02:56.910Z,7.40
2022-09-04T16:05:36.324Z,7.30
2022-09-04T16:08:21.033Z,7.20
2022-09-04T16:10:53.551Z,8.10
2022-09-04T16:13:29.085Z,6.40
2022-09-04T16:16:04.377Z,6.00
2022-09-04T16:18:40.381Z,7.20
2022-09-04T16:21:34.522Z,7.40
2022-09-04T16:24:09.006Z,7.20
2022-09-04T16:26:38.135Z,7.90
2022-09-04T16:29:18.138Z,8.90
2022-09-04T16:31:53.502Z,6.30
2022-09-04T16:34:26.784Z,6.50
2022-09-04T16:37:13.717Z,6.70
2022-09-04T16:39:54.441Z,7.20
2022-09-04T16:42:31.621Z,7.80
2022-09-04T16:45:10.404Z,8.00
2022-09-04T16:48:00.428Z,8.00
2022-09-04T16:50:51.956Z,7.50
2022-09-04T16:53:32.082Z,6.90
2022-09-04T16:56:03.830Z,7.50
2022-09-04T16:58:38.478Z,6.70
2022-09-04T17:01:28.934Z,6.60
2022-09-04T17:04:13.816Z,5.50
2022-09-04T17:07:03.330Z,5.90
2022-09-04T17:09:36.019Z,6.60
2022-09-04T17:12:19.006Z,7.00
2022-09-04T17:15:06.344Z,7.70
2022-09-04T17:17:36.785Z,8.50
2022-09-04T17:20:08.376Z,9.00
2022-09-04T17:28:55.572Z,6.50
2022-09-04T17:29:02.553Z,7.70
2022-09-04T17:29:19.234Z,7.40
2022-09-04T17:31:38.458Z,7.30
2022-09-04T17:40:42.841Z,7.40
2022-09-04T17:40:49.263Z,7.60
2022-09-04T17:40:55.434Z,6.80
2022-09-04T17:43:27.946Z,7.10
2022-09-04T17:46:02.422Z,9.40
2022-09-04T17:48:32.745Z,7.00
2022-09-04T17:51:03.507Z,7.80
2022-09-04T17:53:34.817Z,7.50
2022-09-04T17:56:13.756Z,6.50
2022-09-04T17:59:09.095Z,7.10
2022-09-04T18:01:51.948Z,6.50
2022-09-04T18:04:35.511Z,7.70
2022-09-04T18:08:00.674Z,5.60
2022-09-04T18:10:31.375Z,6.40
2022-09-04T18:13:37.177Z,6.50
2022-09-04T18:16:09.262Z,7.30
2022-09-04T18:18:39.449Z,7.90
2022-09-04T18:21:16.351Z,7.90
2022-09-04T18:23:54.911Z,9.00
2022-09-04T18:26:41.897Z,8.70
2022-09-04T18:33:14.061Z,7.40
2022-09-04T18:37:25.133Z,8.60
2022-09-04T18:37:26.028Z,7.70
2022-09-04T18:38:20.694Z,8.50
2022-09-04T18:45:38.975Z,13.20
2022-09-04T18:50:21.407Z,7.00
2022-09-04T18:50:28.925Z,8.10
2022-09-04T18:50:46.627Z,7.60
2022-09-04T18:52:18.943Z,7.10
2022-09-04T18:54:50.104Z,8.20
2022-09-04T18:57:32.573Z,6.50
2022-09-04T19:00:07.766Z,8.00
2022-09-04T19:02:53.445Z,10.60
2022-09-04T19:05:24.156Z,8.70
2022-09-04T19:07:57.352Z,7.70
2022-09-04T19:10:27.042Z,9.90
2022-09-04T19:13:02.408Z,7.30
2022-09-04T19:15:37.545Z,8.70
2022-09-04T19:18:15.792Z,7.60
2022-09-04T19:20:50.569Z,8.30
2022-09-04T19:23:35.154Z,7.90
2022-09-04T19:26:12.030Z,8.60
2022-09-04T19:28:57.939Z,10.00
2022-09-04T19:31:30.032Z,9.50
2022-09-04T19:34:08.444Z,9.30
2022-09-04T19:36:55.580Z,9.30
2022-09-04T19:46:07.452Z,8.30
2022-09-04T19:46:07.641Z,8.70
2022-09-04T19:46:11.957Z,10.00
2022-09-04T19:48:35.316Z,7.80
2022-09-04T19:53:21.624Z,9.80
2022-09-04T19:56:54.816Z,9.40
2022-09-04T19:59:39.249Z,11.10
2022-09-04T20:02:23.152Z,10.40
2022-09-04T20:04:56.132Z,10.20
2022-09-04T20:07:46.141Z,11.40
2022-09-04T20:10:23.035Z,9.50
2022-09-04T20:12:58.213Z,10.70
2022-09-04T20:15:31.452Z,10.90
2022-09-04T20:18:14.629Z,10.60
2022-09-04T20:20:46.719Z,9.60
2022-09-04T20:23:34.569Z,13.80
2022-09-04T20:26:10.688Z,15.50
2022-09-04T20:29:12.209Z,10.70
2022-09-04T20:31:45.236Z,12.30
2022-09-04T20:34:25.229Z,12.90
2022-09-04T20:37:01.227Z,11.40
2022-09-04T20:39:41.943Z,9.90
2022-09-04T20:42:18.283Z,10.20
2022-09-04T20:45:12.935Z,8.50
2022-09-04T20:52:43.998Z,9.90
2022-09-04T20:52:54.742Z,11.90
2022-09-04T20:56:26.086Z,11.10
2022-09-04T21:03:08.987Z,11.50
2022-09-04T21:03:19.030Z,9.80
2022-09-04T21:05:17.236Z,11.30
2022-09-04T21:07:52.504Z,9.30
2022-09-04T21:10:31.744Z,11.20
2022-09-04T21:13:13.845Z,11.10
2022-09-04T21:15:58.585Z,11.00
2022-09-04T21:18:41.460Z,12.90
2022-09-04T21:21:17.379Z,11.50
2022-09-04T21:24:02.987Z,10.40
2022-09-04T21:26:57.689Z,10.00
2022-09-04T21:29:29.133Z,11.10
2022-09-04T21:32:27.615Z,8.70
2022-09-04T21:35:11.478Z,8.80
2022-09-04T21:37:50.651Z,11.90
2022-09-04T21:40:49.965Z,11.50
2022-09-04T21:43:44.565Z,8.20
2022-09-04T21:46:28.758Z,8.60
2022-09-04T21:49:19.657Z,8.00
2022-09-04T21:52:07.959Z,8.40
2022-09-04T21:58:11.476Z,7.80
2022-09-04T22:02:35.994Z,7.90
2022-09-04T22:02:37.049Z,7.50
2022-09-04T22:04:17.704Z,12.70
2022-09-04T22:09:12.486Z,10.70
2022-09-04T22:13:37.745Z,8.20
2022-09-04T22:13:46.549Z,12.50
2022-09-04T22:16:02.315Z,9.00
2022-09-04T22:18:34.179Z,9.70
2022-09-04T22:21:27.035Z,14.10
2022-09-04T22:24:11.561Z,9.00
2022-09-04T22:26:41.076Z,9.90
2022-09-04T22:29:22.057Z,14.00
2022-09-04T22:32:21.881Z,10.10
2022-09-04T22:35:20.113Z,10.20
2022-09-04T22:38:13.687Z,8.50
2022-09-04T22:40:57.235Z,11.60
2022-09-04T22:43:26.351Z,9.60
2022-09-04T22:46:09.380Z,12.70
2022-09-04T22:48:47.942Z,12.90
2022-09-04T22:51:47.097Z,9.90
2022-09-04T22:54:31.017Z,9.40
2022-09-04T22:57:05.215Z,10.20
2022-09-04T23:03:07.577Z,9.40
2022-09-04T23:06:35.506Z,11.00
2022-09-04T23:13:44.686Z,10.80
2022-09-04T23:13:51.046Z,9.10
2022-09-04T23:14:52.479Z,8.60
2022-09-04T23:17:32.104Z,8.20
2022-09-04T23:26:38.818Z,7.10
2022-09-04T23:26:44.645Z,7.30
2022-09-04T23:29:11.993Z,8.10
2022-09-04T23:31:40.210Z,9.90
2022-09-04T23:34:23.290Z,9.30
2022-09-04T23:36:58.527Z,7.10
2022-09-04T23:39:42.534Z,9.00
2022-09-04T23:42:13.336Z,9.80
2022-09-04T23:44:47.473Z,7.60
2022-09-04T23:47:48.002Z,8.80
2022-09-04T23:50:17.877Z,7.40
2022-09-04T23:52:53.408Z,9.00
2022-09-04T23:55:37.257Z,8.10
2022-09-04T23:58:47.166Z,9.90
